createdAt,value
2023-05-19T00:00:27.510Z,12.67
2023-05-19T00:02:54.024Z,12.65
2023-05-19T00:05:20.549Z,12.61
2023-05-19T00:07:46.956Z,12.78
2023-05-19T00:10:13.399Z,12.72
2023-05-19T00:12:39.827Z,12.75
2023-05-19T00:15:06.405Z,12.84
2023-05-19T00:17:32.852Z,12.78
2023-05-19T00:19:59.287Z,12.92
2023-05-19T00:22:25.708Z,12.81
2023-05-19T00:24:52.151Z,12.81
2023-05-19T00:27:18.583Z,12.88
2023-05-19T00:29:45.029Z,12.89
2023-05-19T00:32:11.450Z,12.92
2023-05-19T00:34:37.916Z,12.89
2023-05-19T00:37:04.372Z,12.75
2023-05-19T00:39:30.836Z,12.69
2023-05-19T00:41:57.253Z,12.56
2023-05-19T00:44:23.735Z,12.82
2023-05-19T00:46:50.269Z,12.88
2023-05-19T00:49:16.703Z,12.78
2023-05-19T00:51:43.136Z,12.44
2023-05-19T00:54:09.545Z,12.38
2023-05-19T00:56:35.941Z,12.42
2023-05-19T00:59:02.454Z,12.43
2023-05-19T01:01:29.015Z,12.46
2023-05-19T01:03:55.573Z,12.55
2023-05-19T01:06:22.020Z,12.44
2023-05-19T01:08:48.469Z,12.46
2023-05-19T01:11:14.877Z,12.48
2023-05-19T01:13:42.090Z,12.56
2023-05-19T01:16:08.909Z,12.60
2023-05-19T01:18:35.423Z,12.51
2023-05-19T01:21:01.836Z,12.49
2023-05-19T01:23:28.285Z,12.48
2023-05-19T01:25:54.710Z,12.41
2023-05-19T01:28:21.115Z,12.57
2023-05-19T01:30:47.534Z,12.68
2023-05-19T01:33:14.110Z,12.62
2023-05-19T01:35:40.536Z,12.64
2023-05-19T01:38:06.971Z,12.74
2023-05-19T01:40:33.670Z,12.72
2023-05-19T01:43:00.253Z,12.75
2023-05-19T01:45:26.659Z,12.63
2023-05-19T01:47:53.087Z,12.58
2023-05-19T01:50:19.542Z,12.61
2023-05-19T01:52:45.995Z,12.62
2023-05-19T01:55:12.419Z,12.56
2023-05-19T01:57:38.869Z,12.55
2023-05-19T02:00:05.293Z,12.57
2023-05-19T02:02:31.747Z,12.62
2023-05-19T02:04:58.238Z,12.57
2023-05-19T02:07:24.645Z,12.61
2023-05-19T02:09:51.070Z,12.60
2023-05-19T02:12:17.476Z,12.59
2023-05-19T02:14:43.880Z,12.53
2023-05-19T02:17:10.278Z,12.53
2023-05-19T02:19:36.714Z,12.47
2023-05-19T02:22:03.202Z,12.47
2023-05-19T02:24:29.636Z,12.43
2023-05-19T02:26:56.062Z,12.49
2023-05-19T02:29:22.460Z,12.50
2023-05-19T02:31:48.957Z,12.42
2023-05-19T02:34:15.431Z,12.48
2023-05-19T02:36:41.836Z,12.51
2023-05-19T02:39:08.265Z,12.42
2023-05-19T02:41:34.717Z,12.37
2023-05-19T02:44:01.163Z,12.41
2023-05-19T02:46:27.588Z,12.33
2023-05-19T02:48:54.123Z,12.20
2023-05-19T02:51:20.546Z,12.26
2023-05-19T02:53:46.995Z,12.19
2023-05-19T02:56:13.416Z,12.37
2023-05-19T02:58:39.802Z,12.30
2023-05-19T03:01:06.239Z,12.34
2023-05-19T03:03:32.795Z,12.31
2023-05-19T03:05:59.298Z,12.31
2023-05-19T03:08:25.730Z,12.34
2023-05-19T03:10:52.166Z,12.34
2023-05-19T03:13:18.583Z,12.27
2023-05-19T03:15:45.085Z,12.36
2023-05-19T03:18:11.619Z,12.30
2023-05-19T03:20:39.583Z,12.26
2023-05-19T03:23:07.356Z,12.19
2023-05-19T03:25:33.813Z,12.21
2023-05-19T03:28:00.242Z,12.18
2023-05-19T03:30:26.731Z,12.13
2023-05-19T03:32:53.238Z,12.40
2023-05-19T03:35:19.777Z,12.07
2023-05-19T03:37:46.230Z,11.99
2023-05-19T03:40:12.635Z,11.88
2023-05-19T03:42:39.064Z,11.97
2023-05-19T03:45:05.609Z,12.04
2023-05-19T03:47:32.055Z,11.82
2023-05-19T03:49:58.525Z,11.61
2023-05-19T03:52:24.983Z,11.59
2023-05-19T03:54:51.417Z,11.69
2023-05-19T03:57:17.812Z,11.79
2023-05-19T03:59:44.247Z,11.79
2023-05-19T04:02:10.723Z,11.70
2023-05-19T04:04:37.214Z,11.67
2023-05-19T04:07:03.715Z,11.71
2023-05-19T04:09:30.122Z,11.81
2023-05-19T04:11:56.553Z,11.89
2023-05-19T04:14:22.972Z,11.73
2023-05-19T04:16:49.420Z,11.85
2023-05-19T04:19:15.890Z,11.85
2023-05-19T04:21:42.307Z,11.79
2023-05-19T04:24:08.762Z,11.64
2023-05-19T04:26:35.182Z,11.71
2023-05-19T04:29:01.617Z,11.78
2023-05-19T04:31:28.055Z,11.65
2023-05-19T04:33:54.517Z,11.77
2023-05-19T04:36:20.956Z,11.85
2023-05-19T04:38:47.386Z,12.04
2023-05-19T04:41:13.777Z,12.13
2023-05-19T04:43:40.200Z,12.21
2023-05-19T04:46:06.652Z,12.31
2023-05-19T04:48:33.098Z,12.26
2023-05-19T04:50:59.545Z,12.36
2023-05-19T04:53:25.979Z,12.36
2023-05-19T04:55:52.377Z,12.40
2023-05-19T04:58:18.825Z,12.36
2023-05-19T05:00:45.290Z,12.41
2023-05-19T05:03:11.761Z,12.37
2023-05-19T05:05:38.200Z,12.46
2023-05-19T05:08:04.676Z,12.40
2023-05-19T05:10:31.448Z,12.36
2023-05-19T05:12:58.053Z,12.22
2023-05-19T05:15:24.517Z,12.23
2023-05-19T05:17:51.053Z,12.29
2023-05-19T05:20:17.497Z,12.32
2023-05-19T05:22:43.902Z,12.52
2023-05-19T05:25:10.378Z,12.48
2023-05-19T05:27:36.819Z,12.49
2023-05-19T05:30:03.247Z,12.31
2023-05-19T05:32:29.819Z,12.43
2023-05-19T05:34:56.295Z,12.43
2023-05-19T05:37:22.718Z,12.40
2023-05-19T05:39:49.181Z,12.58
2023-05-19T05:42:15.729Z,12.75
2023-05-19T05:44:42.147Z,12.79
2023-05-19T05:47:08.579Z,12.82
2023-05-19T05:49:34.995Z,12.63
2023-05-19T05:52:06.294Z,12.81
2023-05-19T05:54:33.184Z,12.91
2023-05-19T05:56:59.660Z,13.10
2023-05-19T05:59:26.067Z,13.28
2023-05-19T06:01:52.942Z,13.41
2023-05-19T06:04:19.398Z,13.40
2023-05-19T06:06:45.832Z,13.56
2023-05-19T06:09:12.254Z,13.72
2023-05-19T06:11:38.656Z,13.86
2023-05-19T06:14:05.145Z,14.07
2023-05-19T06:16:31.747Z,13.97
2023-05-19T06:18:58.405Z,14.22
2023-05-19T06:21:24.847Z,14.11
2023-05-19T06:23:51.257Z,14.03
2023-05-19T06:26:17.665Z,14.12
2023-05-19T06:28:44.159Z,14.22
2023-05-19T06:31:10.628Z,14.12
2023-05-19T06:33:37.078Z,13.92
2023-05-19T06:36:03.518Z,13.53
2023-05-19T06:38:29.951Z,13.61
2023-05-19T06:40:56.374Z,13.57
2023-05-19T06:43:22.798Z,13.68
2023-05-19T06:45:50.737Z,13.74
2023-05-19T06:48:17.217Z,13.84
2023-05-19T06:50:43.658Z,13.99
2023-05-19T06:53:10.114Z,14.19
2023-05-19T06:55:41.424Z,14.51
2023-05-19T06:58:17.090Z,14.48
2023-05-19T07:00:43.552Z,14.40
2023-05-19T07:03:10.065Z,14.60
2023-05-19T07:05:36.538Z,14.85
2023-05-19T07:08:03.041Z,15.01
2023-05-19T07:10:29.578Z,15.01
2023-05-19T07:12:56.017Z,15.28
2023-05-19T07:15:22.464Z,15.15
2023-05-19T07:17:48.972Z,15.08
2023-05-19T07:20:15.400Z,14.62
2023-05-19T07:22:41.832Z,14.44
2023-05-19T07:25:08.324Z,14.16
2023-05-19T07:27:34.734Z,14.21
2023-05-19T07:30:01.199Z,14.00
2023-05-19T07:32:27.628Z,13.68
2023-05-19T07:34:54.094Z,14.01
2023-05-19T07:37:20.516Z,14.23
2023-05-19T07:39:46.972Z,14.30
2023-05-19T07:42:13.388Z,14.39
2023-05-19T07:44:39.868Z,14.63
2023-05-19T07:47:06.263Z,14.26
2023-05-19T07:49:32.733Z,14.30
2023-05-19T07:51:59.153Z,14.33
2023-05-19T07:54:25.563Z,14.42
2023-05-19T07:56:51.995Z,14.55
2023-05-19T07:59:18.404Z,14.55
2023-05-19T08:01:44.873Z,14.87
2023-05-19T08:04:12.908Z,14.89
2023-05-19T08:06:39.709Z,14.35
2023-05-19T08:09:06.141Z,14.61
2023-05-19T08:11:32.550Z,14.96
2023-05-19T08:13:58.979Z,15.14
2023-05-19T08:16:25.576Z,15.10
2023-05-19T08:18:52.116Z,15.35
2023-05-19T08:21:18.578Z,15.27
2023-05-19T08:23:44.997Z,14.91
2023-05-19T08:26:11.390Z,14.83
2023-05-19T08:28:37.832Z,14.92
2023-05-19T08:31:04.387Z,14.93
2023-05-19T08:33:30.842Z,14.84
2023-05-19T08:35:57.236Z,14.95
2023-05-19T08:38:23.673Z,14.96
2023-05-19T08:40:50.079Z,15.21
2023-05-19T08:43:16.560Z,15.29
2023-05-19T08:45:43.038Z,15.19
2023-05-19T08:48:09.493Z,14.28
2023-05-19T08:50:35.974Z,13.81
2023-05-19T08:53:02.422Z,14.15
2023-05-19T08:55:28.943Z,14.48
2023-05-19T08:57:55.390Z,14.67
2023-05-19T09:00:21.853Z,14.20
2023-05-19T09:02:59.678Z,14.09
2023-05-19T09:05:32.832Z,14.56
2023-05-19T09:07:59.418Z,14.51
2023-05-19T09:10:27.188Z,14.35
2023-05-19T09:12:54.930Z,14.60
2023-05-19T09:15:21.339Z,15.06
2023-05-19T09:17:47.788Z,14.32
2023-05-19T09:20:14.233Z,14.37
2023-05-19T09:22:40.674Z,14.52
2023-05-19T09:25:07.090Z,14.82
2023-05-19T09:27:33.541Z,15.24
2023-05-19T09:29:59.952Z,15.54
2023-05-19T09:32:26.433Z,15.52
2023-05-19T09:34:53.104Z,15.66
2023-05-19T09:37:19.605Z,15.88
2023-05-19T09:39:46.024Z,16.16
2023-05-19T09:42:12.451Z,15.74
2023-05-19T09:44:38.932Z,15.51
2023-05-19T09:47:05.335Z,15.72
2023-05-19T09:49:31.750Z,16.13
2023-05-19T09:51:58.449Z,15.82
2023-05-19T09:54:24.933Z,15.97
2023-05-19T09:56:51.349Z,16.28
2023-05-19T09:59:17.796Z,16.00
2023-05-19T10:01:44.281Z,15.97
2023-05-19T10:04:10.750Z,16.09
2023-05-19T10:06:37.173Z,16.15
2023-05-19T10:09:03.589Z,15.90
2023-05-19T10:11:29.976Z,16.46
2023-05-19T10:13:56.401Z,15.96
2023-05-19T10:16:22.837Z,15.22
2023-05-19T10:18:49.320Z,15.83
2023-05-19T10:21:15.784Z,16.20
2023-05-19T10:23:42.231Z,16.66
2023-05-19T10:26:08.646Z,16.70
2023-05-19T10:28:35.088Z,16.92
2023-05-19T10:31:01.546Z,17.09
2023-05-19T10:33:27.980Z,16.71
2023-05-19T10:35:54.423Z,16.52
2023-05-19T10:38:20.869Z,16.41
2023-05-19T10:40:47.364Z,16.86
2023-05-19T10:43:13.834Z,16.69
2023-05-19T10:45:40.317Z,17.12
2023-05-19T10:48:06.826Z,17.26
2023-05-19T10:50:33.278Z,17.40
2023-05-19T10:52:59.688Z,17.15
2023-05-19T10:55:26.114Z,17.29
2023-05-19T10:57:52.560Z,17.56
2023-05-19T11:00:18.976Z,17.92
2023-05-19T11:02:45.411Z,18.01
2023-05-19T11:05:11.822Z,18.19
2023-05-19T11:07:38.243Z,18.38
2023-05-19T11:10:04.782Z,18.53
2023-05-19T11:12:31.211Z,18.86
2023-05-19T11:14:57.668Z,19.12
2023-05-19T11:17:24.224Z,19.29
2023-05-19T11:19:50.694Z,19.09
2023-05-19T11:22:17.149Z,19.09
2023-05-19T11:24:43.562Z,19.17
2023-05-19T11:27:09.975Z,19.28
2023-05-19T11:29:36.392Z,19.27
2023-05-19T11:32:02.907Z,19.29
2023-05-19T11:34:29.441Z,19.21
2023-05-19T11:36:55.849Z,19.21
2023-05-19T11:39:22.268Z,19.30
2023-05-19T11:41:48.769Z,19.46
2023-05-19T11:44:15.183Z,19.86
2023-05-19T11:46:41.610Z,20.23
2023-05-19T11:49:08.281Z,20.06
2023-05-19T11:51:34.683Z,20.24
2023-05-19T11:54:01.656Z,20.12
2023-05-19T11:56:28.142Z,20.36
2023-05-19T11:58:54.552Z,20.02
2023-05-19T12:01:20.985Z,20.40
2023-05-19T12:03:47.485Z,19.98
2023-05-19T12:06:14.125Z,20.00
2023-05-19T12:08:40.643Z,20.33
2023-05-19T12:11:07.061Z,20.35
2023-05-19T12:13:33.467Z,20.25
2023-05-19T12:15:59.916Z,20.27
2023-05-19T12:18:26.334Z,20.05
2023-05-19T12:20:52.747Z,20.14
2023-05-19T12:23:19.197Z,20.52
2023-05-19T12:25:45.649Z,20.76
2023-05-19T12:28:12.070Z,20.84
2023-05-19T12:30:39.333Z,20.72
2023-05-19T12:33:05.863Z,20.66
2023-05-19T12:35:32.309Z,20.62
2023-05-19T12:37:58.742Z,21.02
2023-05-19T12:40:25.323Z,20.91
2023-05-19T12:42:51.737Z,20.55
2023-05-19T12:45:18.169Z,20.57
2023-05-19T12:47:44.791Z,20.95
2023-05-19T12:50:11.258Z,21.16
2023-05-19T12:52:37.735Z,21.27
2023-05-19T12:55:04.258Z,21.78
2023-05-19T12:57:30.746Z,21.16
2023-05-19T12:59:57.248Z,21.50
2023-05-19T13:02:23.783Z,21.34
2023-05-19T13:04:50.222Z,21.32
2023-05-19T13:07:16.650Z,21.57
2023-05-19T13:09:43.103Z,21.79
2023-05-19T13:12:09.621Z,21.75
2023-05-19T13:14:36.024Z,21.36
2023-05-19T13:17:02.476Z,21.51
2023-05-19T13:19:28.958Z,21.12
2023-05-19T13:21:55.366Z,21.11
2023-05-19T13:24:21.831Z,20.88
2023-05-19T13:26:48.292Z,21.07
2023-05-19T13:29:14.713Z,21.25
2023-05-19T13:31:41.134Z,20.84
2023-05-19T13:34:07.595Z,21.33
2023-05-19T13:36:34.068Z,21.36
2023-05-19T13:39:00.501Z,21.07
2023-05-19T13:41:26.987Z,21.32
2023-05-19T13:43:53.444Z,21.31
2023-05-19T13:46:26.625Z,21.56
2023-05-19T13:48:59.409Z,21.53
2023-05-19T13:51:26.102Z,21.52
2023-05-19T13:53:52.737Z,21.44
2023-05-19T13:56:19.148Z,21.26
2023-05-19T13:58:45.559Z,21.23
2023-05-19T14:01:12.011Z,21.21
2023-05-19T14:03:38.560Z,21.06
2023-05-19T14:06:05.064Z,20.77
2023-05-19T14:08:31.503Z,20.64
2023-05-19T14:10:58.019Z,20.55
2023-05-19T14:15:53.915Z,20.48
2023-05-19T14:18:20.361Z,20.31
2023-05-19T14:20:46.773Z,20.19
2023-05-19T14:23:13.213Z,20.29
2023-05-19T14:25:39.617Z,20.31
2023-05-19T14:28:06.080Z,20.44
2023-05-19T14:30:32.771Z,20.12
2023-05-19T14:32:59.490Z,19.92
2023-05-19T14:35:25.963Z,20.16
2023-05-19T14:37:53.554Z,19.75
2023-05-19T14:40:19.957Z,19.64
2023-05-19T14:42:46.409Z,19.43
2023-05-19T14:45:12.849Z,19.22
2023-05-19T14:47:39.394Z,19.05
2023-05-19T14:50:05.823Z,18.73
2023-05-19T14:52:32.256Z,19.08
2023-05-19T14:54:58.683Z,18.97
2023-05-19T14:57:25.119Z,18.89
2023-05-19T14:59:51.580Z,18.82
2023-05-19T15:02:17.976Z,18.46
2023-05-19T15:04:44.394Z,18.72
2023-05-19T15:07:11.231Z,18.75
2023-05-19T15:09:37.892Z,18.84
2023-05-19T15:12:04.347Z,18.76
2023-05-19T15:14:31.339Z,18.47
2023-05-19T15:16:58.109Z,18.81
2023-05-19T15:19:24.827Z,18.71
2023-05-19T15:21:51.464Z,18.76
2023-05-19T15:24:17.924Z,18.48
2023-05-19T15:26:44.345Z,18.44
2023-05-19T15:29:10.761Z,18.48
2023-05-19T15:31:38.489Z,18.62
2023-05-19T15:34:05.139Z,18.80
2023-05-19T15:36:31.573Z,18.36
2023-05-19T15:38:58.003Z,18.30
2023-05-19T15:41:24.502Z,18.46
2023-05-19T15:43:50.984Z,18.22
2023-05-19T15:46:17.489Z,18.11
2023-05-19T15:48:43.971Z,18.19
2023-05-19T15:51:10.477Z,18.02
2023-05-19T15:53:36.905Z,18.13
2023-05-19T15:56:04.698Z,18.11
2023-05-19T15:58:32.785Z,18.28
2023-05-19T16:00:59.196Z,18.26
2023-05-19T16:03:25.679Z,18.26
2023-05-19T16:05:52.160Z,18.21
2023-05-19T16:08:18.591Z,18.03
2023-05-19T16:10:45.029Z,17.94
2023-05-19T16:13:11.435Z,17.83
2023-05-19T16:15:37.860Z,17.60
2023-05-19T16:18:04.331Z,17.75
2023-05-19T16:20:30.900Z,17.71
2023-05-19T16:22:57.432Z,17.37
2023-05-19T16:25:23.906Z,17.40
2023-05-19T16:27:50.418Z,17.47
2023-05-19T16:30:16.852Z,17.60
2023-05-19T16:32:43.336Z,17.45
2023-05-19T16:35:09.856Z,17.72
2023-05-19T16:37:36.429Z,17.69
2023-05-19T16:40:02.904Z,17.60
2023-05-19T16:42:29.358Z,17.66
2023-05-19T16:44:55.805Z,17.73
2023-05-19T16:47:22.233Z,17.39
2023-05-19T16:49:48.649Z,17.16
2023-05-19T16:52:15.074Z,17.22
2023-05-19T16:54:41.516Z,17.25
2023-05-19T16:57:07.940Z,17.35
2023-05-19T16:59:34.377Z,17.41
2023-05-19T17:02:00.884Z,17.31
2023-05-19T17:04:29.933Z,17.29
2023-05-19T17:06:57.131Z,17.30
2023-05-19T17:09:23.599Z,17.22
2023-05-19T17:11:50.044Z,17.31
2023-05-19T17:14:16.478Z,17.46
2023-05-19T17:16:42.976Z,17.37
2023-05-19T17:19:09.488Z,17.30
2023-05-19T17:21:35.956Z,17.36
2023-05-19T17:24:02.398Z,17.17
2023-05-19T17:26:28.832Z,17.17
2023-05-19T17:28:55.258Z,17.27
2023-05-19T17:31:21.680Z,17.30
2023-05-19T17:33:48.120Z,17.20
2023-05-19T17:36:14.556Z,17.20
2023-05-19T17:38:40.989Z,17.26
2023-05-19T17:41:07.418Z,17.10
2023-05-19T17:43:33.837Z,17.07
2023-05-19T17:46:01.216Z,17.09
2023-05-19T17:48:27.841Z,16.96
2023-05-19T17:50:54.260Z,17.09
2023-05-19T17:53:20.695Z,16.97
2023-05-19T17:55:47.152Z,16.80
2023-05-19T17:58:13.551Z,16.76
2023-05-19T18:00:41.423Z,16.84
2023-05-19T18:03:08.031Z,16.92
2023-05-19T18:05:34.567Z,16.73
2023-05-19T18:08:00.991Z,16.71
2023-05-19T18:10:27.426Z,16.74
2023-05-19T18:12:53.827Z,16.66
2023-05-19T18:15:20.311Z,16.73
2023-05-19T18:17:54.609Z,16.55
2023-05-19T18:20:21.917Z,16.45
2023-05-19T18:22:48.373Z,16.36
2023-05-19T18:25:14.785Z,16.35
2023-05-19T18:27:41.226Z,16.34
2023-05-19T18:30:07.688Z,16.40
2023-05-19T18:32:34.159Z,16.37
2023-05-19T18:35:00.601Z,16.46
2023-05-19T18:37:27.073Z,16.33
2023-05-19T18:39:53.495Z,16.35
2023-05-19T18:42:19.921Z,16.27
2023-05-19T18:44:46.372Z,16.22
2023-05-19T18:47:12.821Z,16.24
2023-05-19T18:49:39.252Z,16.23
2023-05-19T18:52:05.681Z,16.18
2023-05-19T18:54:32.207Z,16.22
2023-05-19T18:56:58.624Z,16.27
2023-05-19T18:59:25.134Z,16.18
2023-05-19T19:01:51.568Z,16.17
2023-05-19T19:04:18.077Z,16.03
2023-05-19T19:06:44.624Z,15.94
2023-05-19T19:09:11.158Z,15.96
2023-05-19T19:11:37.595Z,15.96
2023-05-19T19:14:04.154Z,16.00
2023-05-19T19:16:30.673Z,16.03
2023-05-19T19:18:57.202Z,15.98
2023-05-19T19:21:23.696Z,15.98
2023-05-19T19:23:50.190Z,15.98
2023-05-19T19:26:16.688Z,15.97
2023-05-19T19:28:43.291Z,16.09
2023-05-19T19:31:09.915Z,15.96
2023-05-19T19:33:36.476Z,15.99
2023-05-19T19:36:02.949Z,15.83
2023-05-19T19:38:29.401Z,15.88
2023-05-19T19:40:55.911Z,15.92
2023-05-19T19:43:22.394Z,15.70
2023-05-19T19:45:48.848Z,15.81
2023-05-19T19:48:15.269Z,15.75
2023-05-19T19:50:41.769Z,15.67
2023-05-19T19:53:08.235Z,15.85
2023-05-19T19:55:34.716Z,15.77
2023-05-19T19:58:01.198Z,15.78
2023-05-19T20:00:27.692Z,15.62
2023-05-19T20:03:03.695Z,15.66
2023-05-19T20:05:31.839Z,15.60
2023-05-19T20:07:58.331Z,15.62
2023-05-19T20:10:25.108Z,15.51
2023-05-19T20:12:51.711Z,15.34
2023-05-19T20:15:18.354Z,15.30
2023-05-19T20:17:44.897Z,15.35
2023-05-19T20:20:11.440Z,15.38
2023-05-19T20:22:37.895Z,15.41
2023-05-19T20:25:04.354Z,15.28
2023-05-19T20:27:30.773Z,15.14
2023-05-19T20:29:57.207Z,15.06
2023-05-19T20:32:23.672Z,15.12
2023-05-19T20:34:50.153Z,15.06
2023-05-19T20:37:16.573Z,15.03
2023-05-19T20:39:43.073Z,15.11
2023-05-19T20:42:09.546Z,15.10
2023-05-19T20:44:36.055Z,14.96
2023-05-19T20:47:02.482Z,15.14
2023-05-19T20:49:28.915Z,15.04
2023-05-19T20:51:55.352Z,15.16
2023-05-19T20:54:21.799Z,15.04
2023-05-19T20:56:48.360Z,15.03
2023-05-19T20:59:14.796Z,14.97
2023-05-19T21:01:41.252Z,14.97
2023-05-19T21:04:08.022Z,14.98
2023-05-19T21:06:34.568Z,14.85
2023-05-19T21:09:01.036Z,15.00
2023-05-19T21:11:27.447Z,15.01
2023-05-19T21:13:53.899Z,15.09
2023-05-19T21:16:20.348Z,14.93
2023-05-19T21:18:46.893Z,14.80
2023-05-19T21:21:13.306Z,14.92
2023-05-19T21:23:39.747Z,14.80
2023-05-19T21:26:06.212Z,15.02
2023-05-19T21:28:32.622Z,14.84
2023-05-19T21:30:59.084Z,14.71
2023-05-19T21:33:25.552Z,14.87
2023-05-19T21:35:52.001Z,14.98
2023-05-19T21:38:23.866Z,14.87
2023-05-19T21:40:50.704Z,14.78
2023-05-19T21:43:17.148Z,14.65
2023-05-19T21:45:43.581Z,14.60
2023-05-19T21:48:10.206Z,14.66
2023-05-19T21:50:36.800Z,14.70
2023-05-19T21:53:03.268Z,14.75
2023-05-19T21:55:29.830Z,14.59
2023-05-19T21:57:56.287Z,14.75
2023-05-19T22:00:22.736Z,14.65
2023-05-19T22:02:49.270Z,14.65
2023-05-19T22:05:15.784Z,14.74
2023-05-19T22:07:42.205Z,14.70
2023-05-19T22:10:08.620Z,14.70
2023-05-19T22:12:35.058Z,14.63
2023-05-19T22:15:01.526Z,14.64
2023-05-19T22:17:28.018Z,14.54
2023-05-19T22:19:54.440Z,14.39
2023-05-19T22:22:20.877Z,14.55
2023-05-19T22:24:47.321Z,14.55
2023-05-19T22:27:13.745Z,14.57
2023-05-19T22:29:40.207Z,14.50
2023-05-19T22:32:06.603Z,14.63
2023-05-19T22:34:33.076Z,14.53
2023-05-19T22:36:59.514Z,14.53
2023-05-19T22:39:25.946Z,14.61
2023-05-19T22:41:52.365Z,14.53
2023-05-19T22:44:18.827Z,14.41
2023-05-19T22:46:45.249Z,14.51
2023-05-19T22:49:11.645Z,14.41
2023-05-19T22:51:38.064Z,14.45
2023-05-19T22:54:04.476Z,14.53
2023-05-19T22:56:30.926Z,14.48
2023-05-19T22:58:57.337Z,14.38
2023-05-19T23:01:23.819Z,14.33
2023-05-19T23:03:50.437Z,14.48
2023-05-19T23:06:16.860Z,14.28
2023-05-19T23:08:44.729Z,14.21
2023-05-19T23:11:11.301Z,14.23
2023-05-19T23:13:37.703Z,14.19
2023-05-19T23:16:04.121Z,14.27
2023-05-19T23:18:30.538Z,14.26
2023-05-19T23:20:56.981Z,14.38
2023-05-19T23:23:23.413Z,14.46
2023-05-19T23:25:49.877Z,14.36
2023-05-19T23:28:16.288Z,14.40
2023-05-19T23:30:42.725Z,14.17
2023-05-19T23:33:09.279Z,14.21
2023-05-19T23:35:36.030Z,14.23
2023-05-19T23:38:02.640Z,14.30
2023-05-19T23:40:29.057Z,14.35
2023-05-19T23:42:55.496Z,14.39
2023-05-19T23:45:21.931Z,14.44
2023-05-19T23:47:48.405Z,14.41
2023-05-19T23:50:14.869Z,14.23
2023-05-19T23:52:41.338Z,14.18
2023-05-19T23:55:07.849Z,14.27
2023-05-19T23:57:34.314Z,14.38
